Time;durP1;ratioP1;P1;durP2;ratioP2;P2;SDS_P1;SDS_P2;PMS_P1;PMS_P2;Temp;Humidity;BMP_temperature;BMP_pressure;BME280_temperature;BME280_humidity;BME280_pressure;Samples;Min_cycle;Max_cycle;Signal;HPM_P1;HPM_P2
2023/09/13 00:01:22;;;;;;;9.40;8.50;;;;;;;22.23;88.89;97946.13;5084620;23;20918;-87
2023/09/13 00:03:25;;;;;;;10.17;9.00;;;;;;;22.20;90.01;97953.59;5109573;23;20578;-88
2023/09/13 00:05:29;;;;;;;10.50;9.40;;;;;;;22.15;91.48;97963.13;5085017;23;20608;-87
2023/09/13 00:07:32;;;;;;;10.07;9.07;;;;;;;22.11;90.46;97956.50;5061993;23;20594;-87
2023/09/13 00:09:35;;;;;;;10.37;9.37;;;;;;;22.09;90.41;97964.66;5115051;23;20679;-87
2023/09/13 00:11:39;;;;;;;10.10;9.10;;;;;;;22.09;91.34;97977.13;5089126;23;20632;-88
2023/09/13 00:13:44;;;;;;;9.10;8.30;;;;;;;22.10;92.38;97981.44;5063554;23;21091;-87
2023/09/13 00:15:48;;;;;;;10.60;8.77;;;;;;;22.11;92.20;97983.91;5088394;23;20616;-88
2023/09/13 00:17:51;;;;;;;13.30;9.03;;;;;;;22.12;92.99;97982.91;5065154;23;20628;-88
2023/09/13 00:19:56;;;;;;;13.83;9.90;;;;;;;22.11;94.64;97988.41;5064999;23;20994;-88
2023/09/13 00:21:59;;;;;;;11.93;9.67;;;;;;;22.10;95.08;97986.75;5088917;23;21152;-88
2023/09/13 00:24:02;;;;;;;12.10;9.10;;;;;;;22.08;95.06;97988.75;5089135;23;20572;-87
2023/09/13 00:26:05;;;;;;;11.07;9.20;;;;;;;22.04;95.14;97987.44;5115206;23;20569;-87
2023/09/13 00:28:10;;;;;;;11.73;9.27;;;;;;;22.00;95.29;97997.63;5065263;23;20708;-87
2023/09/13 00:30:13;;;;;;;11.10;9.40;;;;;;;21.96;94.87;97991.00;5063494;23;20582;-88
2023/09/13 00:32:17;;;;;;;16.10;11.50;;;;;;;21.93;94.89;97990.53;5115282;23;21102;-87
2023/09/13 00:34:20;;;;;;;11.20;10.10;;;;;;;21.91;95.12;97980.06;5065425;23;20586;-88
2023/09/13 00:36:23;;;;;;;12.93;10.80;;;;;;;21.84;95.18;97976.47;5089798;23;20580;-87
2023/09/13 00:38:27;;;;;;;11.83;9.23;;;;;;;21.81;96.65;97974.19;5065137;23;20910;-88
2023/09/13 00:40:30;;;;;;;10.47;8.90;;;;;;;21.76;97.53;97983.69;5088571;23;20641;-87
2023/09/13 00:42:32;;;;;;;10.60;8.97;;;;;;;21.72;97.24;97989.53;5064738;23;20639;-88
2023/09/13 00:44:36;;;;;;;10.70;8.60;;;;;;;21.71;97.14;97991.38;5114733;23;20589;-88
2023/09/13 00:46:40;;;;;;;12.30;9.97;;;;;;;21.69;97.40;97988.03;5089132;23;20577;-88
2023/09/13 00:48:43;;;;;;;10.20;8.97;;;;;;;21.70;97.81;97989.69;5088123;23;20581;-87
2023/09/13 00:50:47;;;;;;;10.60;9.00;;;;;;;21.71;98.83;97994.03;5088146;23;20597;-86
2023/09/13 00:52:58;;;;;;;14.77;10.10;;;;;;;21.71;98.03;97990.50;5064980;23;20926;-88
2023/09/13 00:55:01;;;;;;;10.40;9.40;;;;;;;21.69;98.61;97976.59;5089439;23;20582;-88
2023/09/13 00:57:04;;;;;;;14.60;10.30;;;;;;;21.67;98.50;97974.13;5089062;23;20622;-88
2023/09/13 00:59:09;;;;;;;12.67;9.40;;;;;;;21.65;98.66;97972.63;5065278;23;20578;-88
2023/09/13 01:01:13;;;;;;;10.77;9.67;;;;;;;21.62;99.87;97968.50;5087847;23;20637;-87
2023/09/13 01:03:16;;;;;;;11.70;10.10;;;;;;;21.60;99.50;97965.19;5089138;23;20588;-88
2023/09/13 01:05:19;;;;;;;11.73;9.77;;;;;;;21.60;99.73;97961.72;5088455;23;20608;-89
2023/09/13 01:07:22;;;;;;;12.47;9.73;;;;;;;21.60;98.63;97965.19;5090168;23;20559;-88
2023/09/13 01:09:25;;;;;;;10.10;9.10;;;;;;;21.61;99.43;97960.72;5088652;23;20569;-88
2023/09/13 01:11:28;;;;;;;10.10;9.07;;;;;;;21.61;99.94;97955.41;5065038;23;21344;-88
2023/09/13 01:13:32;;;;;;;10.33;9.20;;;;;;;21.58;99.94;97948.63;5115911;23;20640;-88
2023/09/13 01:15:57;;;;;;;12.13;9.23;;;;;;;21.54;99.31;97944.66;5089259;23;20585;-88
2023/09/13 01:18:12;;;;;;;13.60;9.60;;;;;;;21.50;100.00;97930.09;5065216;23;20623;-88
2023/09/13 01:20:18;;;;;;;11.03;9.90;;;;;;;21.51;99.69;97910.47;5114737;23;20572;-89
2023/09/13 01:22:54;;;;;;;10.53;9.50;;;;;;;21.41;100.00;97904.56;5064192;23;20677;-88
2023/09/13 01:25:10;;;;;;;9.70;8.70;;;;;;;21.36;100.00;97898.97;5017932;23;20597;-88
2023/09/13 01:27:39;;;;;;;10.70;9.13;;;;;;;21.37;100.00;97897.13;5089147;23;20578;-88
2023/09/13 01:29:44;;;;;;;11.90;9.43;;;;;;;21.36;100.00;97898.97;5064622;23;20589;-88
2023/09/13 01:31:47;;;;;;;11.10;10.00;;;;;;;21.36;100.00;97901.63;5115595;23;21068;-88
2023/09/13 01:33:51;;;;;;;11.03;9.87;;;;;;;21.34;100.00;97905.44;5064425;23;20582;-89
2023/09/13 01:35:54;;;;;;;14.27;10.03;;;;;;;21.33;100.00;97909.09;5064495;23;20577;-88
2023/09/13 01:37:57;;;;;;;12.07;10.07;;;;;;;21.31;100.00;97906.59;5063896;23;20721;-88
2023/09/13 01:40:00;;;;;;;12.80;10.40;;;;;;;21.31;100.00;97893.34;5087562;23;20616;-88
2023/09/13 01:42:06;;;;;;;12.07;10.77;;;;;;;21.28;100.00;97883.06;5089088;23;20585;-88
2023/09/13 01:44:10;;;;;;;12.37;9.63;;;;;;;21.27;100.00;97874.47;5065202;23;20969;-88
2023/09/13 01:46:14;;;;;;;12.87;9.53;;;;;;;21.26;100.00;97864.84;5089271;23;20583;-88
2023/09/13 01:48:18;;;;;;;11.70;10.13;;;;;;;21.27;100.00;97858.56;5088097;23;20561;-88
2023/09/13 01:50:21;;;;;;;10.87;9.77;;;;;;;21.26;100.00;97867.50;5087958;23;20621;-88
2023/09/13 01:52:25;;;;;;;12.67;10.47;;;;;;;21.26;100.00;97875.47;5087538;23;20669;-88
2023/09/13 01:54:28;;;;;;;11.83;10.50;;;;;;;21.27;100.00;97889.41;5087498;23;20669;-88
2023/09/13 01:56:31;;;;;;;11.27;10.17;;;;;;;21.27;100.00;97890.41;5088669;23;21103;-88
2023/09/13 01:58:36;;;;;;;10.90;9.80;;;;;;;21.25;100.00;97903.84;5113151;23;21130;-88
2023/09/13 02:00:41;;;;;;;10.77;9.63;;;;;;;21.27;100.00;97906.31;5084413;23;20581;-87
2023/09/13 02:02:45;;;;;;;12.23;10.30;;;;;;;21.28;100.00;97919.41;5063760;23;20642;-88
2023/09/13 02:04:49;;;;;;;10.67;9.30;;;;;;;21.27;100.00;97921.25;5087868;23;21174;-88
2023/09/13 02:06:54;;;;;;;11.27;10.10;;;;;;;21.27;100.00;97933.66;5088484;23;20591;-88
2023/09/13 02:08:57;;;;;;;10.93;9.80;;;;;;;21.21;100.00;97934.38;5088582;23;20577;-88
2023/09/13 02:11:00;;;;;;;11.93;10.73;;;;;;;21.21;100.00;97937.03;5063918;23;20621;-88
2023/09/13 02:13:04;;;;;;;12.20;10.83;;;;;;;21.21;100.00;97922.94;5064660;23;20588;-88
2023/09/13 02:15:09;;;;;;;11.83;10.63;;;;;;;21.23;100.00;97920.91;5089084;23;21046;-88
2023/09/13 02:17:13;;;;;;;15.33;10.50;;;;;;;21.27;100.00;97930.19;5063222;23;21003;-85
2023/09/13 02:19:18;;;;;;;10.90;9.80;;;;;;;21.27;100.00;97923.06;5064036;23;20615;-86
2023/09/13 02:21:21;;;;;;;11.70;10.20;;;;;;;21.28;100.00;97943.28;5087990;23;20569;-86
2023/09/13 02:23:25;;;;;;;13.93;9.73;;;;;;;21.25;100.00;97951.59;5088478;23;20675;-85
2023/09/13 02:25:28;;;;;;;13.80;10.10;;;;;;;21.21;100.00;97960.91;5063485;23;20922;-85
2023/09/13 02:27:32;;;;;;;10.63;9.30;;;;;;;21.15;100.00;97964.25;5063840;23;20681;-86
2023/09/13 02:29:35;;;;;;;13.10;9.07;;;;;;;21.13;100.00;97960.13;5114276;23;20590;-85
2023/09/13 02:31:38;;;;;;;11.43;9.90;;;;;;;21.14;100.00;97965.25;5087247;23;20561;-86
2023/09/13 02:33:42;;;;;;;13.87;10.70;;;;;;;21.14;100.00;97959.09;5088738;23;20620;-85
2023/09/13 02:35:48;;;;;;;11.93;10.33;;;;;;;21.12;100.00;97961.94;5088850;23;20624;-86
2023/09/13 02:37:50;;;;;;;11.70;10.23;;;;;;;21.08;100.00;97957.16;5088659;23;20580;-86
2023/09/13 02:39:53;;;;;;;13.33;10.70;;;;;;;21.08;100.00;97963.31;5087468;23;20591;-86
2023/09/13 02:41:55;;;;;;;13.33;10.33;;;;;;;21.09;100.00;97962.28;5063839;23;20661;-86
2023/09/13 02:43:58;;;;;;;15.63;11.20;;;;;;;21.08;100.00;97955.34;5064269;23;21187;-86
2023/09/13 02:46:02;;;;;;;12.40;10.50;;;;;;;21.09;100.00;97949.00;5064295;23;21428;-86
2023/09/13 02:48:07;;;;;;;12.97;10.40;;;;;;;21.10;100.00;97945.38;5087981;23;20578;-86
2023/09/13 02:50:10;;;;;;;11.93;10.43;;;;;;;21.10;100.00;97939.25;5113959;23;20592;-85
2023/09/13 02:52:15;;;;;;;15.10;9.63;;;;;;;21.09;100.00;97935.75;5088582;23;20571;-85
2023/09/13 02:54:20;;;;;;;11.50;10.23;;;;;;;21.09;100.00;97934.94;5088687;23;20567;-85
2023/09/13 02:56:23;;;;;;;10.23;9.10;;;;;;;21.07;100.00;97939.59;5063189;23;20590;-86
2023/09/13 02:58:26;;;;;;;10.97;9.87;;;;;;;21.00;100.00;97939.47;5085603;23;20599;-85
2023/09/13 03:00:30;;;;;;;11.60;10.40;;;;;;;20.98;100.00;97945.94;5087968;23;20574;-85
2023/09/13 03:02:32;;;;;;;10.97;9.43;;;;;;;20.97;100.00;97946.91;5087739;23;20676;-86
2023/09/13 03:04:35;;;;;;;11.13;9.83;;;;;;;20.96;100.00;97950.59;5089027;23;20654;-85
2023/09/13 03:06:39;;;;;;;10.50;9.33;;;;;;;20.96;100.00;97955.91;5064237;23;20589;-86
2023/09/13 03:08:44;;;;;;;11.10;10.00;;;;;;;20.96;100.00;97961.22;5090619;23;20597;-86
2023/09/13 03:10:48;;;;;;;10.77;9.67;;;;;;;20.96;100.00;97971.81;5089040;23;20607;-86
2023/09/13 03:12:51;;;;;;;10.53;9.50;;;;;;;20.98;100.00;97977.75;5089973;23;20587;-86
2023/09/13 03:14:55;;;;;;;10.27;9.20;;;;;;;20.99;100.00;97982.09;5089794;23;20591;-86
2023/09/13 03:16:58;;;;;;;10.23;9.23;;;;;;;21.00;100.00;97981.06;5065886;23;20594;-85
2023/09/13 03:19:04;;;;;;;14.47;9.23;;;;;;;20.99;100.00;97988.22;5065306;23;20620;-85
2023/09/13 03:21:12;;;;;;;10.60;9.50;;;;;;;20.96;100.00;97985.06;5089794;23;20585;-86
2023/09/13 03:23:16;;;;;;;15.17;9.77;;;;;;;20.93;100.00;97982.78;5065422;23;20577;-85
2023/09/13 03:25:20;;;;;;;11.17;9.80;;;;;;;20.90;100.00;97986.56;5064431;23;21132;-86
2023/09/13 03:27:23;;;;;;;10.90;9.80;;;;;;;20.88;100.00;97985.09;5089726;23;20591;-87
2023/09/13 03:29:27;;;;;;;11.23;9.63;;;;;;;20.82;100.00;97991.91;5090675;23;20611;-88
2023/09/13 03:31:31;;;;;;;11.90;10.70;;;;;;;20.78;100.00;97989.78;5115870;23;20581;-88
2023/09/13 03:33:39;;;;;;;11.90;10.70;;;;;;;20.77;100.00;97987.28;5066000;23;20581;-88
2023/09/13 03:35:42;;;;;;;11.50;10.03;;;;;;;20.77;100.00;97997.91;5065042;23;20924;-88
2023/09/13 03:37:46;;;;;;;10.97;9.67;;;;;;;20.75;100.00;97990.09;5116576;23;20987;-88
2023/09/13 03:39:49;;;;;;;12.20;10.57;;;;;;;20.74;100.00;97993.75;5065737;23;20601;-87
2023/09/13 03:41:53;;;;;;;11.63;9.70;;;;;;;20.74;100.00;97991.09;5088551;23;20615;-88
2023/09/13 03:44:03;;;;;;;11.40;10.20;;;;;;;20.74;100.00;97995.59;5116346;23;20603;-88
2023/09/13 03:46:07;;;;;;;12.73;9.93;;;;;;;20.72;100.00;97992.25;5090201;23;20561;-88
2023/09/13 03:48:11;;;;;;;10.30;8.97;;;;;;;20.71;100.00;97999.38;5090553;23;20605;-88
2023/09/13 03:50:14;;;;;;;10.63;9.53;;;;;;;20.69;100.00;98001.41;5089953;23;20566;-88
2023/09/13 03:52:18;;;;;;;11.03;9.87;;;;;;;20.64;100.00;98014.31;5089209;23;20643;-88
2023/09/13 03:54:21;;;;;;;10.23;9.10;;;;;;;20.62;100.00;98016.28;5089480;23;20567;-88
2023/09/13 03:56:24;;;;;;;11.00;9.90;;;;;;;20.60;100.00;98010.31;5089777;23;20616;-88
2023/09/13 03:58:28;;;;;;;10.43;9.37;;;;;;;20.57;100.00;98012.50;5065493;23;20593;-87
2023/09/13 04:00:33;;;;;;;12.97;9.70;;;;;;;20.55;100.00;98012.66;5065121;23;20640;-88
2023/09/13 04:02:36;;;;;;;11.13;9.80;;;;;;;20.58;100.00;98009.69;5113815;23;20882;-88
2023/09/13 04:04:39;;;;;;;10.77;9.67;;;;;;;20.56;100.00;98014.28;5090066;23;20625;-87
2023/09/13 04:06:44;;;;;;;11.30;10.20;;;;;;;20.56;100.00;98011.63;5065795;23;20960;-88
2023/09/13 04:08:47;;;;;;;10.57;9.47;;;;;;;20.55;100.00;98017.97;5064894;23;20585;-88
2023/09/13 04:10:50;;;;;;;11.70;10.37;;;;;;;20.53;100.00;98001.38;5065419;23;20590;-88
2023/09/13 04:12:54;;;;;;;10.20;9.20;;;;;;;20.51;100.00;97995.44;5113347;23;20591;-88
2023/09/13 04:14:59;;;;;;;10.60;9.30;;;;;;;20.48;100.00;98000.25;5065251;23;20693;-88
2023/09/13 04:17:02;;;;;;;12.47;9.33;;;;;;;20.46;100.00;97992.47;5115378;23;20579;-88
2023/09/13 04:19:06;;;;;;;10.80;9.80;;;;;;;20.45;100.00;98000.56;5064839;23;20651;-88
2023/09/13 04:21:09;;;;;;;11.40;9.50;;;;;;;20.40;100.00;97989.63;5089466;23;20579;-88
2023/09/13 04:23:11;;;;;;;11.23;9.70;;;;;;;20.37;100.00;97993.47;5089918;23;20615;-88
2023/09/13 04:25:15;;;;;;;11.10;9.47;;;;;;;20.36;100.00;97989.16;5065412;23;20584;-88
2023/09/13 04:27:21;;;;;;;12.10;9.60;;;;;;;20.41;100.00;97991.28;5115178;23;20603;-88
2023/09/13 04:29:24;;;;;;;12.43;9.30;;;;;;;20.41;100.00;97996.59;5088367;23;20669;-87
2023/09/13 04:31:30;;;;;;;10.03;8.70;;;;;;;20.43;100.00;97991.94;5089147;23;20577;-87
2023/09/13 04:33:49;;;;;;;13.30;9.80;;;;;;;20.44;100.00;98001.56;5088101;23;21153;-89
2023/09/13 04:35:54;;;;;;;9.70;8.70;;;;;;;20.43;100.00;98005.19;5064712;23;20584;-86
2023/09/13 04:37:57;;;;;;;10.50;9.30;;;;;;;20.42;100.00;98004.38;5113653;23;20585;-85
2023/09/13 04:40:05;;;;;;;11.50;9.93;;;;;;;20.43;100.00;98021.09;5088135;23;20608;-85
2023/09/13 04:42:09;;;;;;;10.60;8.60;;;;;;;20.40;100.00;98009.03;5064373;23;20577;-85
2023/09/13 04:44:12;;;;;;;10.17;9.17;;;;;;;20.41;100.00;98018.63;5064076;23;20647;-85
2023/09/13 04:46:15;;;;;;;11.60;9.20;;;;;;;20.41;100.00;98015.97;5087776;23;20590;-85
2023/09/13 04:48:20;;;;;;;11.07;9.70;;;;;;;20.42;100.00;98014.16;5089080;23;20994;-85
2023/09/13 04:50:23;;;;;;;11.47;9.50;;;;;;;20.39;100.00;98010.00;5089471;23;20592;-85
2023/09/13 04:52:26;;;;;;;11.87;10.07;;;;;;;20.34;100.00;98025.59;5088307;23;20577;-85
2023/09/13 04:54:30;;;;;;;15.17;9.77;;;;;;;20.34;100.00;98022.09;5064132;23;20584;-85
2023/09/13 04:56:33;;;;;;;11.93;10.20;;;;;;;20.32;100.00;98024.91;5114434;23;20554;-85
2023/09/13 04:58:36;;;;;;;11.10;9.33;;;;;;;20.33;100.00;98026.56;5088747;23;20568;-86
2023/09/13 05:00:40;;;;;;;10.33;8.47;;;;;;;20.37;100.00;98043.81;5087821;23;20931;-85
2023/09/13 05:02:43;;;;;;;9.50;8.03;;;;;;;20.39;100.00;98047.13;5088599;23;20655;-86
2023/09/13 05:04:48;;;;;;;10.77;8.90;;;;;;;20.42;100.00;98046.78;5064140;23;20682;-86
2023/09/13 05:06:52;;;;;;;11.27;7.90;;;;;;;20.48;100.00;98050.59;5089546;23;20968;-86
2023/09/13 05:08:56;;;;;;;10.07;7.77;;;;;;;20.53;100.00;98059.69;5088956;23;20564;-85
2023/09/13 05:10:59;;;;;;;7.90;7.07;;;;;;;20.54;100.00;98056.06;5087894;23;20569;-85
2023/09/13 05:13:02;;;;;;;8.27;7.30;;;;;;;20.60;100.00;98050.09;5089105;23;20970;-86
2023/09/13 05:15:06;;;;;;;7.77;6.90;;;;;;;20.63;100.00;98055.06;5088837;23;20591;-85
2023/09/13 05:17:10;;;;;;;14.83;11.63;;;;;;;20.62;100.00;98063.19;5063611;23;20585;-86
2023/09/13 05:19:13;;;;;;;8.30;6.80;;;;;;;20.65;100.00;98060.19;5087115;23;21227;-86
2023/09/13 05:21:17;;;;;;;7.43;6.40;;;;;;;20.66;100.00;98062.69;5087963;23;20580;-85
2023/09/13 05:23:20;;;;;;;8.33;6.70;;;;;;;20.66;100.00;98060.03;5065207;23;21124;-85
2023/09/13 05:25:24;;;;;;;6.87;6.23;;;;;;;20.65;100.00;98057.53;5086975;23;20584;-85
2023/09/13 05:27:27;;;;;;;7.50;6.57;;;;;;;20.64;100.00;98061.19;5088784;23;20567;-85
2023/09/13 05:29:30;;;;;;;7.33;5.73;;;;;;;20.66;100.00;98057.38;5087877;23;21120;-85
2023/09/13 05:31:33;;;;;;;6.77;5.30;;;;;;;20.72;100.00;98055.88;5086016;23;20561;-85
2023/09/13 05:33:35;;;;;;;5.93;5.33;;;;;;;20.82;100.00;98050.25;5115226;23;20579;-85
2023/09/13 05:35:39;;;;;;;6.80;5.47;;;;;;;20.98;100.00;98060.81;5087959;23;20657;-86
2023/09/13 05:37:43;;;;;;;8.00;5.90;;;;;;;21.13;100.00;98067.06;5089353;23;20611;-86
2023/09/13 05:39:46;;;;;;;6.00;5.40;;;;;;;21.17;100.00;98065.75;5113644;23;21130;-87
2023/09/13 05:41:50;;;;;;;6.77;6.03;;;;;;;21.17;100.00;98071.06;5087289;23;20650;-86
2023/09/13 05:43:53;;;;;;;6.70;5.73;;;;;;;21.14;100.00;98071.41;5088513;23;20592;-86
2023/09/13 05:45:55;;;;;;;8.13;6.00;;;;;;;21.13;100.00;98077.69;5088877;23;20708;-86
2023/09/13 05:47:59;;;;;;;15.33;11.57;;;;;;;21.16;100.00;98079.19;5089112;23;20616;-89
2023/09/13 05:50:02;;;;;;;7.20;6.50;;;;;;;21.20;100.00;98085.78;5114493;23;20594;-88
2023/09/13 05:52:06;;;;;;;6.70;5.80;;;;;;;21.23;100.00;98085.44;5115149;23;21043;-89
2023/09/13 05:54:11;;;;;;;8.40;5.90;;;;;;;21.25;100.00;98089.59;5089150;23;20624;-88
2023/09/13 05:56:14;;;;;;;6.77;5.90;;;;;;;21.29;100.00;98086.44;5086604;23;20569;-88
2023/09/13 05:58:16;;;;;;;7.43;6.63;;;;;;;21.34;100.00;98093.88;5088202;23;20583;-88
2023/09/13 06:00:20;;;;;;;5.90;5.30;;;;;;;21.40;100.00;98091.38;5089539;23;21003;-89
2023/09/13 06:02:23;;;;;;;6.60;5.90;;;;;;;21.48;100.00;98101.16;5115345;23;20631;-88
2023/09/13 06:04:26;;;;;;;7.80;5.63;;;;;;;21.54;100.00;98089.84;5115407;23;20654;-88
2023/09/13 06:06:29;;;;;;;6.83;5.23;;;;;;;21.59;100.00;98103.44;5087744;23;20609;-88
2023/09/13 06:08:32;;;;;;;5.90;5.30;;;;;;;21.61;100.00;98096.16;5110485;23;20610;-90
2023/09/13 06:10:36;;;;;;;6.60;5.70;;;;;;;21.63;100.00;98096.78;5108130;23;20581;-88
2023/09/13 06:12:40;;;;;;;5.13;4.53;;;;;;;21.62;100.00;98106.59;5079953;23;21019;-90
2023/09/13 06:14:43;;;;;;;6.80;5.77;;;;;;;21.63;99.95;98102.91;5079277;23;20694;-89
2023/09/13 06:16:46;;;;;;;6.20;5.53;;;;;;;21.61;99.39;98096.97;5114365;23;21329;-90
2023/09/13 06:18:50;;;;;;;6.43;5.83;;;;;;;21.63;99.33;98102.09;5064883;23;21021;-88
2023/09/13 06:20:54;;;;;;;7.17;5.37;;;;;;;21.68;99.13;98105.06;5089269;23;20932;-90
2023/09/13 06:22:57;;;;;;;5.17;4.67;;;;;;;21.71;99.86;98104.72;5116152;23;20581;-89
2023/09/13 06:25:01;;;;;;;5.50;5.00;;;;;;;21.76;99.86;98105.84;5089723;23;20585;-90
2023/09/13 06:27:11;;;;;;;7.10;5.83;;;;;;;21.79;100.00;98110.81;5087255;23;20591;-91
2023/09/13 06:29:15;;;;;;;7.40;5.00;;;;;;;21.81;100.00;98111.47;5114767;23;20553;-89
2023/09/13 06:31:18;;;;;;;6.73;5.40;;;;;;;21.84;99.46;98106.63;5089075;23;20574;-89
2023/09/13 06:33:36;;;;;;;7.07;5.20;;;;;;;21.82;99.43;98116.59;5115773;23;20573;-89
2023/09/13 06:35:43;;;;;;;6.40;5.50;;;;;;;21.83;98.88;98117.41;5065216;23;20591;-90
2023/09/13 06:37:47;;;;;;;7.20;5.53;;;;;;;21.87;99.62;98121.41;5089645;23;20576;-90
2023/09/13 06:39:51;;;;;;;6.70;6.00;;;;;;;21.90;100.00;98121.06;5088920;23;20587;-89
2023/09/13 06:41:56;;;;;;;7.90;5.93;;;;;;;21.89;99.92;98122.91;5112816;23;20611;-89
2023/09/13 06:44:00;;;;;;;7.57;6.87;;;;;;;21.90;99.66;98129.03;5090417;23;20981;-90
2023/09/13 06:46:12;;;;;;;6.60;5.90;;;;;;;21.90;99.56;98139.66;5090812;23;20918;-90
2023/09/13 06:48:18;;;;;;;6.77;6.07;;;;;;;21.87;99.82;98146.13;5089194;23;20590;-90
2023/09/13 06:50:20;;;;;;;6.40;5.00;;;;;;;21.85;100.00;98147.31;5089427;23;20616;-89
2023/09/13 06:52:43;;;;;;;7.10;6.30;;;;;;;21.83;100.00;98144.00;5115284;23;20569;-90
2023/09/13 06:55:07;;;;;;;6.80;5.83;;;;;;;21.79;99.27;98148.81;5090611;23;20867;-90
2023/09/13 06:57:15;;;;;;;8.67;6.50;;;;;;;21.80;100.00;98147.84;5114437;23;21214;-85
2023/09/13 06:59:23;;;;;;;9.70;6.17;;;;;;;21.81;100.00;98153.97;5089849;23;20555;-86
2023/09/13 07:01:27;;;;;;;6.60;5.87;;;;;;;21.83;100.00;98155.47;5089698;23;20952;-85
2023/09/13 07:03:51;;;;;;;6.73;6.03;;;;;;;21.78;99.82;98159.63;5089319;23;20558;-86
2023/09/13 07:06:01;;;;;;;9.67;7.53;;;;;;;21.75;100.00;98162.63;5087571;23;21161;-85
2023/09/13 07:08:04;;;;;;;8.37;6.03;;;;;;;21.82;100.00;98163.59;5088532;23;20586;-85
2023/09/13 07:10:08;;;;;;;6.57;5.53;;;;;;;21.86;100.00;98160.44;5088597;23;20648;-85
2023/09/13 07:12:11;;;;;;;6.60;5.90;;;;;;;21.90;99.45;98155.59;5064070;23;20587;-85
2023/09/13 07:14:15;;;;;;;6.20;5.60;;;;;;;21.91;99.18;98160.72;5064998;23;20675;-86
2023/09/13 07:16:19;;;;;;;7.60;5.50;;;;;;;21.95;99.29;98164.72;5063975;23;20573;-85
2023/09/13 07:18:24;;;;;;;6.47;5.77;;;;;;;21.98;99.36;98163.50;5089183;23;20578;-85
2023/09/13 07:20:27;;;;;;;6.47;5.57;;;;;;;21.98;99.11;98163.50;5063512;23;20622;-85
2023/09/13 07:22:30;;;;;;;6.07;5.07;;;;;;;22.01;100.00;98172.00;5114502;23;20581;-85
2023/09/13 07:24:33;;;;;;;8.00;6.13;;;;;;;22.04;99.63;98178.75;5088564;23;20632;-85
2023/09/13 07:26:36;;;;;;;8.50;6.03;;;;;;;22.05;99.42;98183.09;5064596;23;20578;-85
2023/09/13 07:28:39;;;;;;;6.50;5.77;;;;;;;22.05;98.94;98185.75;5065207;23;20589;-85
2023/09/13 07:30:43;;;;;;;7.77;6.87;;;;;;;22.06;99.13;98182.09;5088584;23;20992;-85
2023/09/13 07:32:48;;;;;;;7.30;5.70;;;;;;;22.06;98.92;98180.25;5109809;23;20579;-85
2023/09/13 07:34:51;;;;;;;6.67;5.97;;;;;;;22.12;99.59;98192.03;5063329;23;20925;-85
2023/09/13 07:36:54;;;;;;;7.87;6.50;;;;;;;22.12;98.63;98187.53;5113760;23;20676;-85
2023/09/13 07:38:59;;;;;;;6.80;5.80;;;;;;;22.14;98.32;98182.88;5064191;23;20626;-85
2023/09/13 07:41:03;;;;;;;6.20;5.60;;;;;;;22.20;99.57;98187.50;5087172;23;20606;-86
2023/09/13 07:43:07;;;;;;;5.83;5.23;;;;;;;22.25;98.61;98196.66;5113733;23;20588;-85
2023/09/13 07:45:10;;;;;;;6.50;5.30;;;;;;;22.27;98.61;98191.97;5088475;23;21041;-85
2023/09/13 07:47:13;;;;;;;7.27;5.63;;;;;;;22.31;98.09;98192.44;5064175;23;20622;-86
2023/09/13 07:49:17;;;;;;;6.53;5.83;;;;;;;22.27;96.73;98191.97;5086461;23;20637;-86
2023/09/13 07:51:20;;;;;;;7.73;6.13;;;;;;;22.34;97.46;98192.09;5115596;23;20588;-86
2023/09/13 07:53:25;;;;;;;7.03;6.03;;;;;;;22.38;96.76;98198.72;5089922;23;20582;-85
2023/09/13 07:55:27;;;;;;;7.83;6.20;;;;;;;22.44;97.74;98190.88;5114686;23;20624;-85
2023/09/13 07:57:30;;;;;;;6.83;5.90;;;;;;;22.51;96.69;98185.69;5088860;23;20879;-85
2023/09/13 07:59:33;;;;;;;6.90;6.20;;;;;;;22.57;96.19;98200.94;5113945;23;20569;-85
2023/09/13 08:01:37;;;;;;;6.20;5.60;;;;;;;22.62;95.74;98198.59;5110675;23;20641;-85
2023/09/13 08:03:40;;;;;;;5.87;5.27;;;;;;;22.68;95.77;98201.34;5086067;23;21162;-86
2023/09/13 08:05:46;;;;;;;6.87;5.90;;;;;;;22.73;96.14;98197.16;5064225;23;20665;-85
2023/09/13 08:07:49;;;;;;;6.87;5.43;;;;;;;22.74;94.87;98198.00;5088409;23;20580;-86
2023/09/13 08:09:52;;;;;;;5.90;5.30;;;;;;;22.75;95.48;98197.81;5089422;23;20593;-86
2023/09/13 08:11:56;;;;;;;6.60;5.73;;;;;;;22.73;94.12;98194.50;5062506;23;20584;-85
2023/09/13 08:13:59;;;;;;;6.63;6.03;;;;;;;22.67;94.33;98183.72;5064393;23;20649;-85
2023/09/13 08:16:02;;;;;;;6.27;5.67;;;;;;;22.70;93.54;98202.00;5114378;23;20580;-85
2023/09/13 08:18:05;;;;;;;5.77;5.20;;;;;;;22.71;93.88;98194.88;5088903;23;20595;-86
2023/09/13 08:20:09;;;;;;;6.00;5.13;;;;;;;22.69;94.64;98192.38;5112400;23;20659;-85
2023/09/13 08:22:14;;;;;;;7.07;5.83;;;;;;;22.69;93.96;98196.84;5087882;23;21240;-85
2023/09/13 08:24:27;;;;;;;6.33;5.43;;;;;;;22.64;93.16;98201.88;5089050;23;20968;-85
2023/09/13 08:26:31;;;;;;;8.53;5.70;;;;;;;22.51;93.26;98199.81;5063024;23;20686;-86
2023/09/13 08:28:35;;;;;;;7.83;6.30;;;;;;;22.53;94.54;98195.13;5114783;23;20588;-85
2023/09/13 08:30:38;;;;;;;6.47;5.20;;;;;;;22.53;93.98;98196.97;5087397;23;20638;-86
2023/09/13 08:32:41;;;;;;;11.30;6.53;;;;;;;22.56;94.30;98201.94;5113985;23;20560;-85
2023/09/13 08:34:44;;;;;;;6.90;5.80;;;;;;;22.67;94.38;98202.34;5088537;23;20613;-85
2023/09/13 08:36:49;;;;;;;6.50;5.50;;;;;;;22.81;93.40;98214.91;5115713;23;20573;-85
2023/09/13 08:38:53;;;;;;;6.97;5.60;;;;;;;22.91;94.06;98215.47;5114919;23;20584;-86
2023/09/13 08:40:56;;;;;;;6.60;5.93;;;;;;;23.01;93.91;98224.09;5064955;23;20583;-86
2023/09/13 08:43:00;;;;;;;6.10;5.50;;;;;;;23.10;91.92;98223.03;5063010;23;21180;-85
2023/09/13 08:45:04;;;;;;;5.80;5.20;;;;;;;23.21;92.24;98221.59;5086402;23;20646;-86
2023/09/13 08:47:10;;;;;;;6.30;5.60;;;;;;;23.36;93.20;98225.13;5087614;23;20611;-85
2023/09/13 08:49:13;;;;;;;6.90;5.70;;;;;;;23.47;91.46;98230.00;5088677;23;20571;-86
2023/09/13 08:51:17;;;;;;;6.33;5.73;;;;;;;23.53;90.81;98234.63;5063760;23;20590;-85
2023/09/13 08:53:21;;;;;;;7.50;5.87;;;;;;;23.56;90.11;98242.25;5063139;23;20617;-85
2023/09/13 08:55:26;;;;;;;8.13;6.60;;;;;;;23.56;90.54;98239.59;5063673;23;20583;-85
2023/09/13 08:57:30;;;;;;;7.13;6.37;;;;;;;23.59;91.54;98236.56;5064272;23;20581;-86
2023/09/13 08:59:34;;;;;;;7.53;6.27;;;;;;;23.57;91.14;98249.19;5063762;23;20586;-85
2023/09/13 09:01:38;;;;;;;7.53;6.73;;;;;;;23.50;90.01;98244.78;5087988;23;20572;-86
2023/09/13 09:03:42;;;;;;;6.37;5.77;;;;;;;23.42;90.57;98252.84;5063166;23;20588;-85
2023/09/13 09:05:46;;;;;;;9.23;7.60;;;;;;;23.38;91.90;98241.75;5087329;23;20612;-85
2023/09/13 09:07:50;;;;;;;7.70;6.83;;;;;;;23.35;91.68;98250.09;5087993;23;20686;-85
2023/09/13 09:09:52;;;;;;;6.40;5.80;;;;;;;23.31;91.52;98248.78;5087239;23;21183;-86
2023/09/13 09:11:58;;;;;;;7.67;6.97;;;;;;;23.27;92.41;98246.66;5087257;23;20581;-85
2023/09/13 09:14:02;;;;;;;7.90;7.10;;;;;;;23.25;91.06;98254.00;5063014;23;20813;-86
2023/09/13 09:16:06;;;;;;;8.10;7.07;;;;;;;23.25;91.59;98254.00;5062062;23;20572;-86
2023/09/13 09:18:11;;;;;;;9.10;8.20;;;;;;;23.26;92.90;98253.00;5114471;23;20596;-90
2023/09/13 09:20:15;;;;;;;9.33;8.43;;;;;;;23.23;92.33;98258.69;5088323;23;20619;-90
2023/09/13 09:22:19;;;;;;;13.70;8.60;;;;;;;23.21;91.80;98252.69;5112883;23;20639;-90
2023/09/13 09:24:22;;;;;;;11.07;8.63;;;;;;;23.23;90.81;98256.84;5064261;23;20616;-90
2023/09/13 09:26:25;;;;;;;9.13;7.63;;;;;;;23.25;91.42;98246.03;5114887;23;20888;-91
2023/09/13 09:28:31;;;;;;;8.70;7.67;;;;;;;23.28;90.29;98259.78;5087989;23;20572;-90
2023/09/13 09:30:35;;;;;;;8.73;7.63;;;;;;;23.28;90.70;98251.81;5086769;23;20605;-89
2023/09/13 09:32:39;;;;;;;8.40;7.60;;;;;;;23.32;91.26;98257.63;5088298;23;21136;-90
2023/09/13 09:34:42;;;;;;;10.27;8.60;;;;;;;23.38;90.28;98254.25;5064386;23;20604;-90
2023/09/13 09:36:46;;;;;;;10.23;9.00;;;;;;;23.42;90.24;98256.34;5089281;23;20622;-89
2023/09/13 09:38:54;;;;;;;9.10;7.60;;;;;;;23.48;90.50;98260.94;5113943;23;20591;-90